createdAt,value
2022-10-17T00:02:26.045Z,8.18
2022-10-17T00:04:52.618Z,8.85
2022-10-17T00:07:19.095Z,3.60
2022-10-17T00:09:45.620Z,6.32
2022-10-17T00:12:12.135Z,9.60
2022-10-17T00:14:39.188Z,6.20
2022-10-17T00:17:06.204Z,10.95
2022-10-17T00:19:32.772Z,5.80
2022-10-17T00:21:59.323Z,5.72
2022-10-17T00:24:25.925Z,7.43
2022-10-17T00:26:52.557Z,6.10
2022-10-17T00:29:19.169Z,7.90
2022-10-17T00:31:45.989Z,4.90
2022-10-17T00:34:13.037Z,6.85
2022-10-17T00:36:42.501Z,7.28
2022-10-17T00:39:11.778Z,6.47
2022-10-17T00:41:49.029Z,6.03
2022-10-17T00:44:31.092Z,7.18
2022-10-17T00:46:58.859Z,3.75
2022-10-17T00:49:27.686Z,5.53
2022-10-17T00:51:59.181Z,6.18
2022-10-17T00:54:32.168Z,5.07
2022-10-17T00:56:58.744Z,2.43
2022-10-17T00:59:32.935Z,9.52
2022-10-17T01:02:03.675Z,3.38
2022-10-17T01:04:30.376Z,5.53
2022-10-17T01:06:56.882Z,7.60
2022-10-17T01:09:23.939Z,7.38
2022-10-17T01:12:09.372Z,5.78
2022-10-17T01:15:02.275Z,6.53
2022-10-17T01:17:31.977Z,11.15
2022-10-17T01:20:19.818Z,7.10
2022-10-17T01:22:46.485Z,4.72
2022-10-17T01:25:13.049Z,5.63
2022-10-17T01:27:49.425Z,4.03
2022-10-17T01:30:34.675Z,7.07
2022-10-17T01:33:19.947Z,7.22
2022-10-17T01:35:55.032Z,11.82
2022-10-17T01:38:23.588Z,6.85
2022-10-17T01:40:53.835Z,8.43
2022-10-17T01:43:25.977Z,9.25
2022-10-17T01:45:55.109Z,6.93
2022-10-17T01:48:23.875Z,10.32
2022-10-17T01:51:08.540Z,9.48
2022-10-17T01:53:38.365Z,8.38
2022-10-17T01:56:06.503Z,7.60
2022-10-17T01:58:36.110Z,6.70
2022-10-17T02:01:05.243Z,7.90
2022-10-17T02:03:32.606Z,10.20
2022-10-17T02:05:59.051Z,8.40
2022-10-17T02:08:30.080Z,15.82
2022-10-17T02:11:02.059Z,9.30
2022-10-17T02:13:48.391Z,10.80
2022-10-17T02:16:29.658Z,16.40
2022-10-17T02:19:08.185Z,8.40
2022-10-17T02:21:34.658Z,10.98
2022-10-17T02:24:01.076Z,8.13
2022-10-17T02:26:41.167Z,13.93
2022-10-17T02:29:13.076Z,10.73
2022-10-17T02:31:41.915Z,7.25
2022-10-17T02:34:11.669Z,9.95
2022-10-17T02:36:44.699Z,13.20
2022-10-17T02:39:11.776Z,9.53
2022-10-17T02:41:40.226Z,15.40
2022-10-17T02:44:07.473Z,8.43
2022-10-17T02:46:35.529Z,10.40
2022-10-17T02:49:22.897Z,12.38
2022-10-17T02:51:58.539Z,10.80
2022-10-17T02:54:37.797Z,17.10
2022-10-17T02:57:04.247Z,14.63
2022-10-17T02:59:31.953Z,12.80
2022-10-17T03:01:58.548Z,10.25
2022-10-17T03:04:25.041Z,12.18
2022-10-17T03:06:51.490Z,12.40
2022-10-17T03:09:17.970Z,12.30
2022-10-17T03:11:44.483Z,14.52
2022-10-17T03:14:10.979Z,16.75
2022-10-17T03:16:37.506Z,16.67
2022-10-17T03:19:03.999Z,21.52
2022-10-17T03:21:30.580Z,9.32
2022-10-17T03:23:57.105Z,14.63
2022-10-17T03:26:23.598Z,16.10
2022-10-17T03:28:53.479Z,17.45
2022-10-17T03:31:21.111Z,16.23
2022-10-17T03:33:47.563Z,13.30
2022-10-17T03:36:15.384Z,17.65
2022-10-17T03:38:41.881Z,13.10
2022-10-17T03:41:08.653Z,10.52
2022-10-17T03:43:35.133Z,15.55
2022-10-17T03:46:01.680Z,17.40
2022-10-17T03:48:29.752Z,14.45
2022-10-17T03:51:03.535Z,15.65
2022-10-17T03:53:30.022Z,18.63
2022-10-17T03:55:56.735Z,22.83
2022-10-17T03:58:23.218Z,16.48
2022-10-17T04:00:49.684Z,10.32
2022-10-17T04:03:17.255Z,13.77
2022-10-17T04:05:44.010Z,18.13
2022-10-17T04:08:10.514Z,14.55
2022-10-17T04:10:37.005Z,15.05
2022-10-17T04:13:03.532Z,15.90
2022-10-17T04:15:30.020Z,25.90
2022-10-17T04:17:56.565Z,9.98
2022-10-17T04:20:23.078Z,16.35
2022-10-17T04:22:49.571Z,19.80
2022-10-17T04:25:16.071Z,14.52
2022-10-17T04:27:42.523Z,12.73
2022-10-17T04:30:09.294Z,12.27
2022-10-17T04:32:39.309Z,13.15
2022-10-17T04:35:06.011Z,7.38
2022-10-17T04:37:32.566Z,5.78
2022-10-17T04:39:59.060Z,13.27
2022-10-17T04:42:26.109Z,9.63
2022-10-17T04:44:52.730Z,11.05
2022-10-17T04:47:19.227Z,10.48
2022-10-17T04:49:45.714Z,5.40
2022-10-17T04:52:12.198Z,9.20
2022-10-17T04:54:38.834Z,7.28
2022-10-17T04:57:05.328Z,4.70
2022-10-17T04:59:31.783Z,9.77
2022-10-17T05:01:58.239Z,13.35
2022-10-17T05:04:25.396Z,17.30
2022-10-17T05:06:51.828Z,10.18
2022-10-17T05:09:18.375Z,10.05
2022-10-17T05:11:44.804Z,15.88
2022-10-17T05:14:11.302Z,16.23
2022-10-17T05:16:37.756Z,20.25
2022-10-17T05:19:04.565Z,14.85
2022-10-17T05:24:05.891Z,13.52
2022-10-17T05:26:32.583Z,13.02
2022-10-17T05:29:00.615Z,16.17
2022-10-17T05:31:27.140Z,14.68
2022-10-17T05:33:55.955Z,16.70
2022-10-17T05:36:22.926Z,13.25
2022-10-17T05:38:51.270Z,20.73
2022-10-17T05:41:18.143Z,12.27
2022-10-17T05:43:45.128Z,18.13
2022-10-17T05:46:12.219Z,17.48
2022-10-17T05:48:43.116Z,14.45
2022-10-17T05:51:10.096Z,18.63
2022-10-17T05:53:38.130Z,8.52
2022-10-17T05:56:05.936Z,13.57
2022-10-17T05:58:49.249Z,10.77
2022-10-17T06:01:16.926Z,14.00
2022-10-17T06:03:43.520Z,14.73
2022-10-17T06:06:11.402Z,4.97
2022-10-17T06:08:38.040Z,17.00
2022-10-17T06:11:07.577Z,9.40
2022-10-17T06:13:36.619Z,8.23
2022-10-17T06:16:03.126Z,9.68
2022-10-17T06:18:29.625Z,11.20
2022-10-17T06:21:01.955Z,7.38
2022-10-17T06:23:28.598Z,6.53
2022-10-17T06:25:57.992Z,12.32
2022-10-17T06:28:24.553Z,9.02
2022-10-17T06:30:51.119Z,11.10
2022-10-17T06:33:18.024Z,6.10
2022-10-17T06:35:44.618Z,9.00
2022-10-17T06:38:11.068Z,8.40
2022-10-17T06:40:37.544Z,8.73
2022-10-17T06:43:04.056Z,8.63
2022-10-17T06:45:30.523Z,10.05
2022-10-17T06:47:57.000Z,5.18
2022-10-17T06:50:23.464Z,6.60
2022-10-17T06:52:52.949Z,8.48
2022-10-17T06:55:22.662Z,10.93
2022-10-17T06:57:51.828Z,3.70
2022-10-17T07:00:18.424Z,5.32
2022-10-17T07:02:44.916Z,5.70
2022-10-17T07:05:11.435Z,5.40
2022-10-17T07:07:40.198Z,3.53
2022-10-17T07:10:09.787Z,4.28
2022-10-17T07:12:36.771Z,6.93
2022-10-17T07:15:04.573Z,8.93
2022-10-17T07:17:31.554Z,4.72
2022-10-17T07:19:58.336Z,4.93
2022-10-17T07:22:24.912Z,6.68
2022-10-17T07:24:51.388Z,6.20
2022-10-17T07:27:17.864Z,5.38
2022-10-17T07:29:44.328Z,5.95
2022-10-17T07:32:10.874Z,4.47
2022-10-17T07:34:37.356Z,4.93
2022-10-17T07:37:04.057Z,3.97
2022-10-17T07:39:30.503Z,5.43
2022-10-17T07:41:57.070Z,4.78
2022-10-17T07:44:23.517Z,2.67
2022-10-17T07:46:50.053Z,6.43
2022-10-17T07:49:16.668Z,7.13
2022-10-17T07:51:43.445Z,2.05
2022-10-17T07:54:10.087Z,8.25
2022-10-17T07:56:36.593Z,2.38
2022-10-17T07:59:05.304Z,10.50
2022-10-17T08:01:34.892Z,5.32
2022-10-17T08:04:01.350Z,3.60
2022-10-17T08:06:27.813Z,4.43
2022-10-17T08:08:55.370Z,4.55
2022-10-17T08:11:22.843Z,4.22
2022-10-17T08:13:49.282Z,5.05
2022-10-17T08:16:15.778Z,3.08
2022-10-17T08:18:42.812Z,3.10
2022-10-17T08:21:09.849Z,5.10
2022-10-17T08:23:45.202Z,9.38
2022-10-17T08:26:13.508Z,8.93
2022-10-17T08:28:40.569Z,8.80
2022-10-17T08:31:08.637Z,8.60
2022-10-17T08:33:35.181Z,6.78
2022-10-17T08:36:02.361Z,5.93
2022-10-17T08:38:30.979Z,4.72
2022-10-17T08:41:04.491Z,5.30
2022-10-17T08:43:49.338Z,7.10
2022-10-17T08:48:46.367Z,7.20
2022-10-17T08:51:16.421Z,10.98
2022-10-17T08:53:55.603Z,5.35
2022-10-17T08:56:44.018Z,14.90
2022-10-17T08:59:12.674Z,8.73
2022-10-17T09:01:41.860Z,11.35
2022-10-17T09:04:11.582Z,10.43
2022-10-17T09:06:39.656Z,8.73
2022-10-17T09:09:24.679Z,9.80
2022-10-17T09:11:56.966Z,15.45
2022-10-17T09:14:43.203Z,17.20
2022-10-17T09:17:21.672Z,15.60
2022-10-17T09:19:51.093Z,17.00
2022-10-17T09:22:20.097Z,11.48
2022-10-17T09:24:49.361Z,15.23
2022-10-17T09:27:22.610Z,16.80
2022-10-17T09:29:50.507Z,19.98
2022-10-17T09:32:23.741Z,23.95
2022-10-17T09:34:51.274Z,16.95
2022-10-17T09:37:18.040Z,15.43
2022-10-17T09:39:44.799Z,24.35
2022-10-17T09:42:15.447Z,11.77
2022-10-17T09:44:53.609Z,16.38
2022-10-17T09:47:30.101Z,16.40
2022-10-17T09:49:56.939Z,19.13
2022-10-17T09:52:33.541Z,14.00
2022-10-17T09:55:02.750Z,20.20
2022-10-17T09:57:29.265Z,15.30
2022-10-17T09:59:55.801Z,15.98
2022-10-17T10:02:23.215Z,17.85
2022-10-17T10:05:09.055Z,14.65
2022-10-17T10:07:37.153Z,24.75
2022-10-17T10:10:04.948Z,10.48
2022-10-17T10:12:33.208Z,14.40
2022-10-17T10:14:59.921Z,13.95
2022-10-17T10:17:28.398Z,18.38
2022-10-17T10:19:55.006Z,15.43
2022-10-17T10:22:23.923Z,15.38
2022-10-17T10:25:09.392Z,21.27
2022-10-17T10:27:36.569Z,14.35
2022-10-17T10:30:03.880Z,13.73
2022-10-17T10:32:32.351Z,21.77
2022-10-17T10:34:58.965Z,12.40
2022-10-17T10:37:26.878Z,16.02
2022-10-17T10:39:55.249Z,12.55
2022-10-17T10:42:30.982Z,18.52
2022-10-17T10:45:29.240Z,18.98
2022-10-17T10:50:44.449Z,10.77
2022-10-17T10:53:21.040Z,9.80
2022-10-17T10:55:52.566Z,16.13
2022-10-17T10:58:31.276Z,13.30
2022-10-17T11:01:01.354Z,17.80
2022-10-17T11:03:37.871Z,11.68
2022-10-17T11:06:06.482Z,22.02
2022-10-17T11:08:42.459Z,9.90
2022-10-17T11:11:19.517Z,8.40
2022-10-17T11:13:51.839Z,12.50
2022-10-17T11:16:28.691Z,16.95
2022-10-17T11:18:58.923Z,11.05
2022-10-17T11:21:48.795Z,16.58
2022-10-17T11:24:22.369Z,19.40
2022-10-17T11:26:58.380Z,8.07
2022-10-17T11:29:28.565Z,9.02
2022-10-17T11:31:57.023Z,9.98
2022-10-17T11:34:26.299Z,11.55
2022-10-17T11:36:59.303Z,10.52
2022-10-17T11:39:29.483Z,10.93
2022-10-17T11:42:18.407Z,12.52
2022-10-17T11:44:45.023Z,9.27
2022-10-17T11:47:22.891Z,12.32
2022-10-17T11:49:52.297Z,7.75
2022-10-17T11:52:56.776Z,7.45
2022-10-17T11:58:05.000Z,6.20
2022-10-17T12:00:40.798Z,6.30
2022-10-17T12:03:44.332Z,5.72
2022-10-17T12:06:13.833Z,6.05
2022-10-17T12:08:46.044Z,5.40
2022-10-17T12:11:12.498Z,9.95
2022-10-17T12:13:41.323Z,7.88
2022-10-17T12:16:19.982Z,7.22
2022-10-17T12:18:47.447Z,6.70
2022-10-17T12:21:14.058Z,6.68
2022-10-17T12:23:41.436Z,9.57
2022-10-17T12:26:09.552Z,9.27
2022-10-17T12:28:42.184Z,7.60
2022-10-17T12:31:10.226Z,10.00
2022-10-17T12:34:03.038Z,7.25
2022-10-17T12:36:29.515Z,10.90
2022-10-17T12:39:02.121Z,9.55
2022-10-17T12:41:40.958Z,4.25
2022-10-17T12:44:13.724Z,8.38
2022-10-17T12:46:52.496Z,7.00
2022-10-17T12:49:37.622Z,6.20
2022-10-17T12:52:18.103Z,5.20
2022-10-17T12:54:53.570Z,8.73
2022-10-17T12:57:44.724Z,8.73
2022-10-17T13:00:20.083Z,6.85
2022-10-17T13:02:47.462Z,5.45
2022-10-17T13:05:30.625Z,10.25
2022-10-17T13:07:59.968Z,5.47
2022-10-17T13:12:58.153Z,6.45
2022-10-17T13:15:24.767Z,5.95
2022-10-17T13:17:59.799Z,5.40
2022-10-17T13:20:31.301Z,5.68
2022-10-17T13:22:58.666Z,5.50
2022-10-17T13:25:27.054Z,6.40
2022-10-17T13:28:04.753Z,4.78
2022-10-17T13:30:33.196Z,8.48
2022-10-17T13:33:00.216Z,8.45
2022-10-17T13:35:42.018Z,4.65
2022-10-17T13:38:14.009Z,5.28
2022-10-17T13:40:49.637Z,6.65
2022-10-17T13:43:18.347Z,5.10
2022-10-17T13:45:50.147Z,5.43
2022-10-17T13:48:27.382Z,9.73
2022-10-17T13:50:57.190Z,7.28
2022-10-17T13:53:25.667Z,5.10
2022-10-17T13:56:15.723Z,4.03
2022-10-17T13:58:44.346Z,9.70
2022-10-17T14:01:12.243Z,8.57
2022-10-17T14:03:48.283Z,4.43
2022-10-17T14:06:25.372Z,5.72
2022-10-17T14:08:59.857Z,5.35
2022-10-17T14:11:29.549Z,5.18
2022-10-17T14:13:56.767Z,6.22
2022-10-17T14:16:23.867Z,5.43
2022-10-17T14:18:51.081Z,6.03
2022-10-17T14:21:43.286Z,4.85
2022-10-17T14:24:16.039Z,6.82
2022-10-17T14:26:48.434Z,5.85
2022-10-17T14:29:20.707Z,6.97
2022-10-17T14:31:50.631Z,7.43
2022-10-17T14:34:21.642Z,6.03
2022-10-17T14:36:50.104Z,3.55
2022-10-17T14:39:23.876Z,4.10
2022-10-17T14:41:51.340Z,3.72
2022-10-17T14:44:26.484Z,2.85
2022-10-17T14:46:54.352Z,7.03
2022-10-17T14:49:35.811Z,8.48
2022-10-17T14:52:28.310Z,4.13
2022-10-17T14:54:55.538Z,3.58
2022-10-17T14:57:34.466Z,4.25
2022-10-17T15:00:00.910Z,3.28
2022-10-17T15:02:30.310Z,12.60
2022-10-17T15:04:57.257Z,3.78
2022-10-17T15:07:24.221Z,3.90
2022-10-17T15:09:52.048Z,3.65
2022-10-17T15:12:19.827Z,3.95
2022-10-17T15:14:48.496Z,4.57
2022-10-17T15:17:21.047Z,6.65
2022-10-17T15:19:47.896Z,5.07
2022-10-17T15:22:16.283Z,6.60
2022-10-17T15:24:43.016Z,4.57
2022-10-17T15:27:16.797Z,3.70
2022-10-17T15:29:43.229Z,5.47
2022-10-17T15:32:09.756Z,4.68
2022-10-17T15:34:36.301Z,3.78
2022-10-17T15:37:03.847Z,3.97
2022-10-17T15:39:30.394Z,4.68
2022-10-17T15:41:57.102Z,1.95
2022-10-17T15:44:23.667Z,3.22
2022-10-17T15:46:50.171Z,3.00
2022-10-17T15:49:18.427Z,2.72
2022-10-17T15:51:44.902Z,3.95
2022-10-17T15:56:43.428Z,4.68
2022-10-17T15:59:14.845Z,2.47
2022-10-17T16:01:41.556Z,2.78
2022-10-17T16:04:12.666Z,2.10
2022-10-17T16:06:39.245Z,1.48
2022-10-17T16:09:05.771Z,3.42
2022-10-17T16:11:36.549Z,2.42
2022-10-17T16:14:04.802Z,4.13
2022-10-17T16:16:31.465Z,3.33
2022-10-17T16:18:57.948Z,2.28
2022-10-17T16:21:26.101Z,2.80
2022-10-17T16:23:52.887Z,2.75
2022-10-17T16:26:19.427Z,1.73
2022-10-17T16:28:46.550Z,3.55
2022-10-17T16:31:26.734Z,4.50
2022-10-17T16:33:54.198Z,2.50
2022-10-17T16:36:20.915Z,3.28
2022-10-17T16:38:48.219Z,1.35
2022-10-17T16:41:21.555Z,3.92
2022-10-17T16:43:48.700Z,2.03
2022-10-17T16:46:15.327Z,1.25
2022-10-17T16:48:42.727Z,2.45
2022-10-17T16:51:09.547Z,10.15
2022-10-17T16:53:40.003Z,4.07
2022-10-17T16:56:07.094Z,3.47
2022-10-17T16:58:33.546Z,1.90
2022-10-17T17:01:00.912Z,5.70
2022-10-17T17:03:27.449Z,3.97
2022-10-17T17:05:54.079Z,4.72
2022-10-17T17:08:20.549Z,4.13
2022-10-17T17:10:49.799Z,3.50
2022-10-17T17:13:16.755Z,1.98
2022-10-17T17:15:43.265Z,2.35
2022-10-17T17:18:10.812Z,4.18
2022-10-17T17:20:37.470Z,6.63
2022-10-17T17:23:03.942Z,6.88
2022-10-17T17:25:30.532Z,4.32
2022-10-17T17:27:56.993Z,3.05
2022-10-17T17:30:23.658Z,2.30
2022-10-17T17:32:50.207Z,3.28
2022-10-17T17:35:16.817Z,2.60
2022-10-17T17:37:43.301Z,4.63
2022-10-17T17:40:10.168Z,2.78
2022-10-17T17:42:36.924Z,2.10
2022-10-17T17:45:03.815Z,2.40
2022-10-17T17:47:30.728Z,2.90
2022-10-17T17:49:57.319Z,4.25
2022-10-17T17:52:23.798Z,2.17
2022-10-17T17:54:50.298Z,2.88
2022-10-17T17:57:16.838Z,3.38
2022-10-17T17:59:43.408Z,4.90
2022-10-17T18:02:10.574Z,3.38
2022-10-17T18:04:37.149Z,3.65
2022-10-17T18:07:03.641Z,3.65
2022-10-17T18:09:30.099Z,3.85
2022-10-17T18:11:56.607Z,3.28
2022-10-17T18:14:24.007Z,2.63
2022-10-17T18:16:50.673Z,3.00
2022-10-17T18:19:17.258Z,3.45
2022-10-17T18:21:44.426Z,2.25
2022-10-17T18:24:10.944Z,2.95
2022-10-17T18:26:37.382Z,1.77
2022-10-17T18:29:04.016Z,4.10
2022-10-17T18:31:35.639Z,3.63
2022-10-17T18:34:03.298Z,3.33
2022-10-17T18:36:30.391Z,6.43
2022-10-17T18:38:57.350Z,3.22
2022-10-17T18:41:24.631Z,3.20
2022-10-17T18:43:51.757Z,3.22
2022-10-17T18:46:19.856Z,3.13
2022-10-17T18:48:47.176Z,3.15
2022-10-17T18:51:14.511Z,3.45
2022-10-17T18:53:42.116Z,1.90
2022-10-17T18:56:08.839Z,2.05
2022-10-17T18:58:36.424Z,1.80
2022-10-17T19:01:07.044Z,5.53
2022-10-17T19:03:33.687Z,1.52
2022-10-17T19:06:01.305Z,3.00
2022-10-17T19:08:27.748Z,1.20
2022-10-17T19:10:54.203Z,4.75
2022-10-17T19:13:21.643Z,0.82
2022-10-17T19:15:48.410Z,0.95
2022-10-17T19:18:14.878Z,4.03
2022-10-17T19:20:41.652Z,1.30
2022-10-17T19:23:08.093Z,2.10
2022-10-17T19:25:34.584Z,1.40
2022-10-17T19:28:01.155Z,1.00
2022-10-17T19:30:28.091Z,0.60
2022-10-17T19:32:54.583Z,1.45
2022-10-17T19:35:21.129Z,0.93
2022-10-17T19:37:47.648Z,1.70
2022-10-17T19:40:14.338Z,1.05
2022-10-17T19:42:40.782Z,2.47
2022-10-17T19:45:08.325Z,4.63
2022-10-17T19:47:35.249Z,5.18
2022-10-17T19:50:01.761Z,0.82
2022-10-17T19:52:28.503Z,0.52
2022-10-17T19:54:55.176Z,1.40
2022-10-17T19:57:21.686Z,2.35
2022-10-17T19:59:49.387Z,2.63
2022-10-17T20:02:17.726Z,2.60
2022-10-17T20:04:54.394Z,1.77
2022-10-17T20:07:26.576Z,1.10
2022-10-17T20:09:53.001Z,1.85
2022-10-17T20:12:19.483Z,3.15
2022-10-17T20:14:46.033Z,1.70
2022-10-17T20:17:12.458Z,1.13
2022-10-17T20:19:38.986Z,2.45
2022-10-17T20:22:05.500Z,2.00
2022-10-17T20:24:31.952Z,5.57
2022-10-17T20:26:58.478Z,3.40
2022-10-17T20:29:25.419Z,3.03
2022-10-17T20:31:51.979Z,1.35
2022-10-17T20:34:19.244Z,1.15
2022-10-17T20:36:46.155Z,3.72
2022-10-17T20:39:14.344Z,1.00
2022-10-17T20:41:41.378Z,1.25
2022-10-17T20:44:08.170Z,0.90
2022-10-17T20:46:37.547Z,1.10
2022-10-17T20:49:06.060Z,0.57
2022-10-17T20:51:32.958Z,1.08
2022-10-17T20:53:59.470Z,0.75
2022-10-17T20:56:27.204Z,1.00
2022-10-17T20:58:54.733Z,0.93
2022-10-17T21:01:21.869Z,1.65
2022-10-17T21:03:48.728Z,1.63
2022-10-17T21:06:15.880Z,4.15
2022-10-17T21:08:42.773Z,1.08
2022-10-17T21:11:09.268Z,2.00
2022-10-17T21:13:35.884Z,0.80
2022-10-17T21:16:06.427Z,2.67
2022-10-17T21:18:32.867Z,2.05
2022-10-17T21:21:09.974Z,3.08
2022-10-17T21:23:36.509Z,1.75
2022-10-17T21:26:04.135Z,1.27
2022-10-17T21:28:31.153Z,2.08
2022-10-17T21:31:06.767Z,0.68
2022-10-17T21:33:33.275Z,0.60
2022-10-17T21:35:59.703Z,1.10
2022-10-17T21:38:26.234Z,0.75
2022-10-17T21:40:55.352Z,2.45
2022-10-17T21:43:22.667Z,3.80
2022-10-17T21:45:49.237Z,1.65
2022-10-17T21:48:15.722Z,3.42
2022-10-17T21:50:42.270Z,1.52
2022-10-17T21:53:08.759Z,1.05
2022-10-17T21:55:38.295Z,1.95
2022-10-17T21:58:05.120Z,1.63
2022-10-17T22:00:31.622Z,0.68
2022-10-17T22:02:58.198Z,4.80
2022-10-17T22:05:24.742Z,2.75
2022-10-17T22:07:51.251Z,1.95
2022-10-17T22:10:17.797Z,1.52
2022-10-17T22:12:44.331Z,1.70
2022-10-17T22:15:10.902Z,1.42
2022-10-17T22:17:37.435Z,3.35
2022-10-17T22:20:04.082Z,2.45
2022-10-17T22:22:30.572Z,3.22
2022-10-17T22:24:57.226Z,1.70
2022-10-17T22:27:23.796Z,1.73
2022-10-17T22:29:50.338Z,3.22
2022-10-17T22:32:20.103Z,1.83
2022-10-17T22:34:49.058Z,1.52
2022-10-17T22:37:15.537Z,1.92
2022-10-17T22:39:42.038Z,2.22
2022-10-17T22:42:08.595Z,6.28
2022-10-17T22:44:35.163Z,2.40
2022-10-17T22:47:01.624Z,1.65
2022-10-17T22:49:28.087Z,3.50
2022-10-17T22:51:54.592Z,1.38
2022-10-17T22:54:21.074Z,4.25
2022-10-17T22:56:47.548Z,1.48
2022-10-17T22:59:14.318Z,5.85
2022-10-17T23:01:40.863Z,0.65
2022-10-17T23:04:07.495Z,1.88
2022-10-17T23:06:34.146Z,4.55
2022-10-17T23:09:00.815Z,2.08
2022-10-17T23:11:27.383Z,1.40
2022-10-17T23:13:54.074Z,0.85
2022-10-17T23:16:20.527Z,3.47
2022-10-17T23:18:47.077Z,1.48
2022-10-17T23:21:13.737Z,2.45
2022-10-17T23:23:40.391Z,2.13
2022-10-17T23:26:13.925Z,0.65
2022-10-17T23:28:40.903Z,2.13
2022-10-17T23:31:11.670Z,0.55
2022-10-17T23:33:38.132Z,1.45
2022-10-17T23:36:05.505Z,1.75
2022-10-17T23:38:31.990Z,2.05
2022-10-17T23:40:58.555Z,1.60
2022-10-17T23:43:26.598Z,0.57
2022-10-17T23:45:53.312Z,2.45
2022-10-17T23:48:19.866Z,2.13
2022-10-17T23:50:46.417Z,2.38
2022-10-17T23:53:12.973Z,2.95
2022-10-17T23:55:39.442Z,5.20
2022-10-17T23:58:06.071Z,1.60
